Time;durP1;ratioP1;P1;durP2;ratioP2;P2;SDS_P1;SDS_P2;PMS_P1;PMS_P2;Temp;Humidity;BMP_temperature;BMP_pressure;BME280_temperature;BME280_humidity;BME280_pressure;Samples;Min_cycle;Max_cycle;Signal;HPM_P1;HPM_P2
2023/07/20 00:00:08;;;;;;;0.50;0.50;;;;;;;;;;7392636;19;20140;-86
2023/07/20 00:02:52;;;;;;;0.77;0.70;;;;;;;;;;7392977;19;20138;-86
2023/07/20 00:05:21;;;;;;;0.65;0.65;;;;;;;;;;7395256;19;20129;-86
2023/07/20 00:07:51;;;;;;;0.68;0.68;;;;;;;;;;7393751;19;20505;-87
2023/07/20 00:10:18;;;;;;;0.63;0.63;;;;;;;;;;7392630;19;20133;-84
2023/07/20 00:12:47;;;;;;;0.60;0.60;;;;;;;;;;7392342;19;20669;-86
2023/07/20 00:15:14;;;;;;;0.70;0.70;;;;;;;;;;7394281;19;20230;-86
2023/07/20 00:17:41;;;;;;;1.00;0.90;;;;;;;;;;7394949;19;20117;-86
2023/07/20 00:20:09;;;;;;;0.88;0.88;;;;;;;;;;7393973;19;20145;-86
2023/07/20 00:22:35;;;;;;;0.52;0.52;;;;;;;;;;7392999;19;20778;-85
2023/07/20 00:25:02;;;;;;;0.70;0.70;;;;;;;;;;7392737;19;20148;-87
2023/07/20 00:27:29;;;;;;;1.38;0.90;;;;;;;;;;7393255;19;20583;-85
2023/07/20 00:29:56;;;;;;;0.50;0.50;;;;;;;;;;7393397;19;20176;-85
2023/07/20 00:32:22;;;;;;;2.33;0.98;;;;;;;;;;7391270;19;20218;-85
2023/07/20 00:34:49;;;;;;;0.60;0.60;;;;;;;;;;7393878;19;20137;-84
2023/07/20 00:37:16;;;;;;;0.47;0.47;;;;;;;;;;7387474;19;20137;-85
2023/07/20 00:39:42;;;;;;;0.75;0.75;;;;;;;;;;7391943;19;20141;-84
2023/07/20 00:42:09;;;;;;;0.65;0.65;;;;;;;;;;7390343;19;20232;-87
2023/07/20 00:45:17;;;;;;;0.80;0.80;;;;;;;;;;7392125;19;20141;-87
2023/07/20 00:48:18;;;;;;;0.82;0.82;;;;;;;;;;7392820;19;20148;-86
2023/07/20 00:50:46;;;;;;;0.55;0.55;;;;;;;;;;7391604;19;20391;-85
2023/07/20 00:53:13;;;;;;;0.52;0.52;;;;;;;;;;7393844;19;20149;-85
2023/07/20 00:55:39;;;;;;;0.40;0.40;;;;;;;;;;7392641;19;20177;-86
2023/07/20 00:58:08;;;;;;;0.47;0.38;;;;;;;;;;7391540;19;20141;-85
2023/07/20 01:00:35;;;;;;;0.40;0.40;;;;;;;;;;7391945;19;20172;-85
2023/07/20 01:03:01;;;;;;;0.30;0.30;;;;;;;;;;7391262;19;20141;-86
2023/07/20 01:05:38;;;;;;;1.40;0.68;;;;;;;;;;7391444;19;20145;-86
2023/07/20 01:08:14;;;;;;;0.68;0.68;;;;;;;;;;7391405;19;20148;-85
2023/07/20 01:10:45;;;;;;;0.50;0.50;;;;;;;;;;7391315;19;20599;-85
2023/07/20 01:13:14;;;;;;;0.60;0.60;;;;;;;;;;7390554;19;20152;-86
2023/07/20 01:15:40;;;;;;;0.77;0.77;;;;;;;;;;7391077;19;20483;-86
2023/07/20 01:18:07;;;;;;;0.55;0.55;;;;;;;;;;7390869;19;20154;-86
2023/07/20 01:20:34;;;;;;;0.73;0.73;;;;;;;;;;7389972;19;20140;-88
2023/07/20 01:23:13;;;;;;;1.27;0.75;;;;;;;;;;7393353;19;20480;-87
2023/07/20 01:25:47;;;;;;;0.50;0.50;;;;;;;;;;7394829;19;20137;-88
2023/07/20 01:28:55;;;;;;;1.10;0.70;;;;;;;;;;7392908;19;20132;-87
2023/07/20 01:31:27;;;;;;;0.50;0.50;;;;;;;;;;7391594;19;20171;-87
2023/07/20 01:33:56;;;;;;;3.92;0.65;;;;;;;;;;7393787;19;20133;-86
2023/07/20 01:36:25;;;;;;;0.30;0.30;;;;;;;;;;7392287;19;20122;-86
2023/07/20 01:38:52;;;;;;;0.63;0.63;;;;;;;;;;7392610;19;20147;-86
2023/07/20 01:41:18;;;;;;;0.30;0.30;;;;;;;;;;7393218;19;20141;-85
2023/07/20 01:43:46;;;;;;;1.23;0.60;;;;;;;;;;7394086;19;20137;-86
2023/07/20 01:46:12;;;;;;;0.47;0.47;;;;;;;;;;7390516;19;20158;-86
2023/07/20 01:48:39;;;;;;;0.40;0.40;;;;;;;;;;7393826;19;20146;-86
2023/07/20 01:51:06;;;;;;;0.40;0.40;;;;;;;;;;7398402;19;20179;-87
2023/07/20 01:53:33;;;;;;;0.40;0.40;;;;;;;;;;7401217;19;20133;-87
2023/07/20 01:55:59;;;;;;;0.30;0.30;;;;;;;;;;7400816;19;20160;-87
2023/07/20 01:58:26;;;;;;;1.90;0.57;;;;;;;;;;7399604;19;20144;-87
2023/07/20 02:00:53;;;;;;;1.08;0.80;;;;;;;;;;7398017;19;20153;-86
2023/07/20 02:03:21;;;;;;;2.47;0.93;;;;;;;;;;7400180;19;20516;-86
2023/07/20 02:05:48;;;;;;;0.70;0.70;;;;;;;;;;7400385;19;20599;-86
2023/07/20 02:08:16;;;;;;;0.57;0.57;;;;;;;;;;7400891;19;20137;-87
2023/07/20 02:10:47;;;;;;;0.50;0.50;;;;;;;;;;7399819;19;20137;-87
2023/07/20 20:08:44;;;;;;;1.55;0.63;;;;;;;;;;7396871;19;20456;-84
2023/07/20 20:11:11;;;;;;;0.60;0.60;;;;;;;;;;7394368;19;20178;-84
2023/07/20 20:13:41;;;;;;;0.50;0.50;;;;;;;;;;7393571;19;20146;-83
2023/07/20 20:16:08;;;;;;;1.45;1.00;;;;;;;;;;7395250;19;20133;-85
2023/07/20 20:18:42;;;;;;;0.40;0.40;;;;;;;;;;7395888;19;20711;-86
2023/07/20 20:21:11;;;;;;;0.70;0.70;;;;;;;;;;7394970;19;20589;-86
2023/07/20 20:23:40;;;;;;;0.57;0.57;;;;;;;;;;7395570;19;20141;-85
2023/07/20 20:26:09;;;;;;;0.65;0.47;;;;;;;;;;7396150;19;20157;-88
2023/07/20 20:28:36;;;;;;;0.55;0.55;;;;;;;;;;7396389;19;20141;-88
2023/07/20 20:31:04;;;;;;;0.63;0.63;;;;;;;;;;7404686;19;20268;-83
2023/07/20 20:33:35;;;;;;;0.50;0.50;;;;;;;;;;7424612;19;20142;-83
2023/07/20 20:36:02;;;;;;;0.60;0.60;;;;;;;;;;7424670;19;20125;-84
2023/07/20 20:38:29;;;;;;;0.60;0.60;;;;;;;;;;7398473;19;20221;-85
2023/07/20 20:40:57;;;;;;;0.55;0.55;;;;;;;;;;7391570;19;20125;-87
2023/07/20 20:43:29;;;;;;;0.38;0.38;;;;;;;;;;7392489;19;20208;-86
2023/07/20 20:46:12;;;;;;;0.88;0.55;;;;;;;;;;7392355;19;20216;-87
2023/07/20 20:48:44;;;;;;;0.60;0.60;;;;;;;;;;7393616;19;20161;-88
2023/07/20 20:51:12;;;;;;;0.30;0.30;;;;;;;;;;7393908;19;20165;-87
2023/07/20 20:53:40;;;;;;;0.40;0.40;;;;;;;;;;7392423;19;20204;-86
2023/07/20 20:56:07;;;;;;;0.82;0.82;;;;;;;;;;7392092;19;20129;-85
2023/07/20 20:58:34;;;;;;;1.17;0.85;;;;;;;;;;7391884;19;20591;-86
2023/07/20 21:01:00;;;;;;;0.30;0.30;;;;;;;;;;7392069;19;20179;-86
2023/07/20 21:03:29;;;;;;;0.73;0.73;;;;;;;;;;7393568;19;20559;-85
2023/07/20 21:05:57;;;;;;;0.63;0.63;;;;;;;;;;7393209;19;20143;-85
2023/07/20 21:08:24;;;;;;;0.68;0.68;;;;;;;;;;7390928;19;20486;-84
2023/07/20 21:10:53;;;;;;;1.05;0.95;;;;;;;;;;7391773;19;20133;-84
2023/07/20 21:13:20;;;;;;;0.40;0.40;;;;;;;;;;7392746;19;20217;-85
2023/07/20 21:15:51;;;;;;;0.47;0.47;;;;;;;;;;7393258;19;20625;-85
2023/07/20 21:18:17;;;;;;;0.85;0.85;;;;;;;;;;7392600;19;20137;-85
2023/07/20 21:20:44;;;;;;;0.52;0.52;;;;;;;;;;7391164;19;20128;-87
2023/07/20 21:23:12;;;;;;;0.50;0.50;;;;;;;;;;7391714;19;20212;-87
2023/07/20 21:25:39;;;;;;;0.75;0.75;;;;;;;;;;7394370;19;20591;-87
2023/07/20 21:28:05;;;;;;;1.38;1.08;;;;;;;;;;7393192;19;20137;-85
2023/07/20 21:30:32;;;;;;;9.52;0.88;;;;;;;;;;7392805;19;20148;-86
2023/07/20 21:32:59;;;;;;;0.93;0.88;;;;;;;;;;7391644;19;20638;-84
2023/07/20 21:35:26;;;;;;;0.65;0.65;;;;;;;;;;7391512;19;20204;-85
2023/07/20 21:37:53;;;;;;;0.80;0.80;;;;;;;;;;7389927;19;20137;-84
2023/07/20 21:40:20;;;;;;;0.57;0.57;;;;;;;;;;7390757;19;20147;-86
2023/07/20 21:42:46;;;;;;;0.70;0.63;;;;;;;;;;7403774;19;20168;-84
2023/07/20 21:45:13;;;;;;;0.60;0.60;;;;;;;;;;7404423;19;20140;-86
2023/07/20 21:47:40;;;;;;;0.60;0.60;;;;;;;;;;7403855;19;20162;-85
2023/07/20 21:50:07;;;;;;;0.50;0.50;;;;;;;;;;7400926;19;20535;-85
2023/07/20 21:52:33;;;;;;;0.50;0.50;;;;;;;;;;7405278;19;20169;-85
2023/07/20 21:55:00;;;;;;;0.52;0.50;;;;;;;;;;7400650;19;20137;-87
2023/07/20 21:57:30;;;;;;;5.25;0.60;;;;;;;;;;7392864;19;20137;-86
2023/07/20 21:59:56;;;;;;;0.68;0.68;;;;;;;;;;7392604;19;20208;-88
2023/07/20 22:02:23;;;;;;;0.52;0.52;;;;;;;;;;7392279;19;20148;-88
2023/07/20 22:04:50;;;;;;;0.60;0.60;;;;;;;;;;7401906;19;20126;-86
2023/07/20 22:07:20;;;;;;;0.50;0.50;;;;;;;;;;7407193;19;20610;-85
2023/07/20 22:09:47;;;;;;;0.50;0.50;;;;;;;;;;7408608;19;20129;-87
2023/07/20 22:12:14;;;;;;;0.47;0.47;;;;;;;;;;7406011;19;20659;-86
2023/07/20 22:14:42;;;;;;;0.60;0.60;;;;;;;;;;7409284;19;20492;-88
2023/07/20 22:17:10;;;;;;;0.43;0.43;;;;;;;;;;7399669;19;20150;-85
2023/07/20 22:19:37;;;;;;;0.50;0.50;;;;;;;;;;7399177;19;20133;-87
2023/07/20 22:22:05;;;;;;;0.60;0.60;;;;;;;;;;7397396;19;20155;-86
2023/07/20 22:24:35;;;;;;;0.52;0.52;;;;;;;;;;7399607;19;20137;-85
2023/07/20 22:27:03;;;;;;;0.40;0.40;;;;;;;;;;7400687;19;20129;-84
2023/07/20 22:29:30;;;;;;;0.70;0.70;;;;;;;;;;7399406;19;20141;-85
2023/07/20 22:31:58;;;;;;;0.30;0.30;;;;;;;;;;7397194;19;20141;-85
2023/07/20 22:34:27;;;;;;;0.40;0.40;;;;;;;;;;7399254;19;20125;-85
2023/07/20 22:36:53;;;;;;;0.45;0.45;;;;;;;;;;7398794;19;20133;-85
2023/07/20 22:39:20;;;;;;;0.40;0.40;;;;;;;;;;7401005;19;20200;-85
2023/07/20 22:41:47;;;;;;;0.52;0.52;;;;;;;;;;7397935;19;20153;-85
2023/07/20 22:44:15;;;;;;;0.40;0.40;;;;;;;;;;7398997;19;20129;-85
2023/07/20 22:46:42;;;;;;;0.65;0.65;;;;;;;;;;7398641;19;20546;-85
2023/07/20 22:49:09;;;;;;;0.28;0.28;;;;;;;;;;7398313;19;20138;-84
2023/07/20 22:51:36;;;;;;;0.95;0.93;;;;;;;;;;7396882;19;20842;-85
2023/07/20 22:54:02;;;;;;;0.60;0.60;;;;;;;;;;7398511;19;20125;-85
2023/07/20 22:56:31;;;;;;;0.40;0.40;;;;;;;;;;7398655;19;20141;-84
2023/07/20 22:58:58;;;;;;;0.50;0.50;;;;;;;;;;7395293;19;20209;-85
2023/07/20 23:01:28;;;;;;;0.40;0.40;;;;;;;;;;7395794;19;20164;-87
2023/07/20 23:03:57;;;;;;;0.45;0.45;;;;;;;;;;7398993;19;20153;-84
2023/07/20 23:06:24;;;;;;;0.45;0.45;;;;;;;;;;7398342;19;20149;-86
2023/07/20 23:08:52;;;;;;;1.65;0.75;;;;;;;;;;7397008;19;20491;-84
2023/07/20 23:11:18;;;;;;;0.43;0.43;;;;;;;;;;7394795;19;20490;-86
2023/07/20 23:13:45;;;;;;;0.65;0.65;;;;;;;;;;7398971;19;20177;-86
2023/07/20 23:16:12;;;;;;;0.88;0.77;;;;;;;;;;7398432;19;20645;-86
2023/07/20 23:18:39;;;;;;;0.32;0.32;;;;;;;;;;7393948;19;20136;-85
2023/07/20 23:21:07;;;;;;;0.40;0.40;;;;;;;;;;7396713;19;20235;-84
2023/07/20 23:23:35;;;;;;;0.57;0.57;;;;;;;;;;7398589;19;20490;-84
2023/07/20 23:26:02;;;;;;;0.55;0.55;;;;;;;;;;7396904;19;20140;-84
2023/07/20 23:28:29;;;;;;;0.45;0.45;;;;;;;;;;7397130;19;20634;-84
2023/07/20 23:30:55;;;;;;;0.60;0.60;;;;;;;;;;7395951;19;20141;-84
2023/07/20 23:33:22;;;;;;;0.57;0.57;;;;;;;;;;7396456;19;20157;-84
2023/07/20 23:35:49;;;;;;;0.70;0.70;;;;;;;;;;7396141;19;20282;-85
2023/07/20 23:38:16;;;;;;;1.23;0.85;;;;;;;;;;7395151;19;20137;-85
2023/07/20 23:40:42;;;;;;;0.80;0.70;;;;;;;;;;7389155;19;20161;-85
2023/07/20 23:43:09;;;;;;;1.13;0.65;;;;;;;;;;7391230;19;20133;-84
2023/07/20 23:45:36;;;;;;;0.40;0.40;;;;;;;;;;7394810;19;20137;-85
2023/07/20 23:48:08;;;;;;;0.47;0.47;;;;;;;;;;7394318;19;20140;-86
2023/07/20 23:50:37;;;;;;;0.82;0.40;;;;;;;;;;7392934;19;20611;-85
2023/07/20 23:53:04;;;;;;;0.47;0.47;;;;;;;;;;7392865;19;20173;-86
2023/07/20 23:55:31;;;;;;;0.45;0.45;;;;;;;;;;7398831;19;20189;-86
2023/07/20 23:58:05;;;;;;;0.35;0.35;;;;;;;;;;7407610;19;20169;-86
